Aviation Digital Data Service (ADDS)

Output produced by METARs form (0752 UTC 17 October 2017)
found at http://www.aviationweather.gov/adds/metars/
 
KHBG 170653Z AUTO 36003KT 10SM CLR 12/09 A3020 RMK AO2 SLP225 T01220089
KHBG 170553Z AUTO 35004KT 10SM CLR 13/09 A3020 RMK AO2 SLP226 T01280089 10178 20128 402330128 58007
KHBG 170453Z AUTO 35005KT 10SM CLR 14/09 A3022 RMK AO2 SLP229 T01390089
KHBG 170353Z AUTO 36005KT 10SM CLR 14/09 A3022 RMK AO2 SLP233 T01440089
KHBG 170253Z AUTO 01005KT 10SM CLR 15/09 A3022 RMK AO2 SLP234 T01500094 51023
KHBG 170153Z AUTO 36005KT 10SM CLR 16/09 A3021 RMK AO2 SLP228 T01610094
KHBG 170053Z AUTO 35004KT 10SM CLR 17/10 A3019 RMK AO2 SLP221 T01670100
KHBG 162353Z AUTO 02003KT 10SM CLR 18/10 A3016 RMK AO2 SLP210 T01780100 10233 20178 53016
KHBG 162253Z AUTO 01007KT 10SM CLR 21/09 A3013 RMK AO2 SLP202 T02060094
KHBG 162153Z AUTO 01010G16KT 10SM CLR 22/08 A3012 RMK AO2 SLP197 T02170078
KHBG 162053Z AUTO 02012G17KT 10SM CLR 23/07 A3011 RMK AO2 SLP193 T02280072 56018
KHBG 161953Z AUTO 01011KT 10SM CLR 23/07 A3011 RMK AO2 SLP194 T02330072
KHBG 161853Z AUTO 35013G17KT 10SM CLR 23/07 A3013 RMK AO2 SLP199 T02280072
KHBG 161753Z AUTO 35010KT 10SM CLR 21/07 A3016 RMK AO2 SLP211 60000 T02110072 10211 20144 58021
KHBG 161653Z AUTO 02010KT 10SM CLR 20/09 A3020 RMK AO2 SLP224 T02000089
KHBG 161553Z AUTO 36010KT 10SM CLR 18/09 A3022 RMK AO2 SLP229 T01780089
KHBG 161453Z AUTO 35012KT 10SM CLR 17/09 A3023 RMK AO2 SLP234 60000 T01670094 51023
KHBG 161353Z AUTO 36010KT 10SM FEW024 14/11 A3022 RMK AO2 SLP232 T01440111
KHBG 161346Z AUTO 01009KT 10SM SCT022 14/11 A3021 RMK AO2 T01440111
KHBG 161318Z AUTO 36014G19KT 10SM BKN015 OVC020 15/12 A3020 RMK AO2 T01500117
KHBG 161253Z AUTO 01010KT 10SM OVC013 15/13 A3018 RMK AO2 RAE02 SLP219 P0000 T01500133
KHBG 161153Z AUTO 36010KT 10SM -RA OVC012 16/14 A3016 RMK AO2 RAB18 SLP211 P0000 60000 70034 T01560144 10228 20156 51013
KHBG 161107Z AUTO 36008KT 10SM OVC013 17/15 A3015 RMK AO2 T01670150
KHBG 161053Z AUTO 02010KT 10SM OVC015 17/14 A3015 RMK AO2 SLP205 T01670144
KHBG 161050Z AUTO 02008KT 10SM OVC015 17/14 A3015 RMK AO2
KHBG 160953Z AUTO 01010G18KT 10SM OVC014 18/16 A3012 RMK AO2 SLP197 T01780156
KHBG 160941Z AUTO 35008KT 10SM OVC014 18/16 A3012 RMK AO2 T01780161
KHBG 160853Z AUTO 36008KT 10SM OVC016 19/17 A3010 RMK AO2 SLP190 T01940172 51002
KHBG 160838Z AUTO 02013G21KT 10SM BKN016 OVC028 19/17 A3010 RMK AO2 T01940172
KHBG 160753Z AUTO 35011G21KT 10SM OVC010 21/19 A3010 RMK AO2 SLP188 T02060189
KHBG 160653Z AUTO 36012KT 10SM OVC012 22/21 A3011 RMK AO2 SLP194 T02220206
KHBG 160553Z AUTO 33008KT 10SM OVC011 23/22 A3010 RMK AO2 SLP188 T02280217 10250 20222 402780222 51007
KHBG 160535Z AUTO 34008KT 10SM BKN010 BKN022 OVC040 23/22 A3009 RMK AO2 T02330222
KHBG 160453Z AUTO 33009G14KT 10SM FEW016 BKN033 OVC060 23/23 A3009 RMK AO2 SLP188 T02280228
KHBG 160353Z AUTO 00000KT 10SM CLR 22/22 A3009 RMK AO2 LTG DSNT NW SLP185 T02220222
KHBG 160253Z AUTO 00000KT 10SM CLR 23/23 A3008 RMK AO2 SLP181 T02280228 51008
KHBG 160153Z AUTO 17003KT 10SM CLR 23/23 A3007 RMK AO2 SLP178 T02330233
KHBG 160053Z AUTO 00000KT 10SM CLR 24/24 A3007 RMK AO2 SLP179 T02390239
KHBG 152353Z AUTO 14004KT 10SM CLR 25/24 A3005 RMK AO2 SLP173 60001 T02500239 10278 20250 53004
KHBG 152253Z AUTO 16005KT 10SM CLR 27/24 A3003 RMK AO2 SLP167 T02670239
KHBG 152153Z AUTO 16005KT 10SM CLR 27/24 A3003 RMK AO2 SLP165 T02720239
KHBG 152053Z AUTO 17004KT 10SM CLR 27/24 A3004 RMK AO2 SLP169 60001 T02670244 56015
KHBG 152003Z AUTO VRB03KT 10SM SCT009 27/24 A3004 RMK AO2 LTG DSNT E AND SE T02670244
KHBG 151953Z AUTO 00000KT 10SM CLR 27/25 A3004 RMK AO2 LTG DSNT E-S SLP170 T02720250
KHBG 151910Z AUTO 16006KT 10SM FEW005 FEW060 SCT120 26/26 A3006 RMK AO2 LTG DSNT SE AND S T02560256
KHBG 151901Z AUTO 00000KT 10SM VCTS FEW055 FEW095 BKN120 26/25 A3006 RMK AO2 LTG DSNT SE AND S T02610250
KHBG 151853Z AUTO 00000KT 10SM FEW007 SCT060 BKN120 26/25 A3006 RMK AO2 LTG DSNT SE-SW RAB08E46 TSB14E29 SLP175 P0001 T02560250
KHBG 151829Z AUTO 22003KT 10SM -RA FEW008 BKN070 OVC095 26/25 A3008 RMK AO2 LTG DSNT S AND SW RAB08 TSB14E29 P0000 T02610250
KHBG 151820Z AUTO 17003KT 10SM -TSRA FEW060 BKN090 OVC110 26/25 A3008 RMK AO2 LTG DSNT S AND SW RAB08 TSB14 P0000 T02610250
KHBG 151809Z AUTO 00000KT 8SM VCTS -RA SCT060 SCT070 OVC100 26/24 A3008 RMK AO2 LTG DSNT S AND SW RAB08 P0000 T02610244
KHBG 151753Z AUTO 00000KT 10SM FEW060 BKN110 26/24 A3008 RMK AO2 LTG DSNT S RAE1655 SLP184 P0000 60033 T02610239 10267 20228 58015
KHBG 151653Z AUTO 05004KT 10SM -RA SCT037 SCT055 BKN080 26/24 A3011 RMK AO2 LTG DSNT SW RAB1554 SLP194 P0033 T02560244
KHBG 151616Z AUTO 00000KT 4SM -RA BR SCT035 BKN060 OVC075 24/24 A3014 RMK AO2 RAB1554 P0029 T02440239
KHBG 151613Z AUTO 01003KT 1SM RA BR BKN033 BKN060 OVC085 24/24 A3013 RMK AO2 VIS 1/4V5 RAB1554 P0029 T02440244
KHBG 151603Z AUTO 32003KT 1/2SM +RA FG BKN028 OVC060 24/24 A3014 RMK AO2 RAB1554 P0022 T02440239
KHBG 151556Z AUTO 00000KT 1 1/2SM -RA BR FEW036 OVC060 26/24 A3014 RMK AO2 RAB54 P0005 T02560239
KHBG 151553Z AUTO 23004KT 8SM FEW050 OVC060 26/23 A3014 RMK AO2 SLP202 T02610233
KHBG 151453Z AUTO 09004KT 10SM FEW019 FEW038 BKN070 25/23 A3013 RMK AO2 SLP200 T02500233 53017
KHBG 151353Z AUTO 12004KT 10SM SCT017 24/23 A3011 RMK AO2 SLP194 T02390228
KHBG 151253Z AUTO 10003KT 10SM FEW070 23/23 A3009 RMK AO2 SLP187 T02330228
KHBG 151153Z AUTO 00000KT 10SM FEW065 23/23 A3008 RMK AO2 SLP183 T02280228 10233 20222 53009
KHBG 151053Z AUTO 00000KT 10SM CLR 23/22 A3007 RMK AO2 SLP179 T02280222
KHBG 150953Z AUTO 00000KT 10SM FEW022 BKN055 OVC070 23/23 A3006 RMK AO2 SLP176 T02330228
KHBG 150853Z AUTO 00000KT 10SM FEW021 BKN048 OVC070 23/23 A3006 RMK AO2 SLP174 T02330228 56008
KHBG 150753Z AUTO 00000KT 10SM OVC060 23/23 A3006 RMK AO2 SLP175 T02330228
KHBG 150653Z AUTO 00000KT 10SM OVC060 23/23 A3007 RMK AO2 SLP180 T02330228
KHBG 150553Z AUTO 00000KT 10SM OVC060 23/22 A3008 RMK AO2 SLP182 T02330222 10256 20222 403110194 56010
KHBG 150453Z AUTO 00000KT 10SM OVC060 23/22 A3009 RMK AO2 SLP185 T02280222
KHBG 150353Z AUTO 00000KT 10SM SCT060 22/22 A3010 RMK AO2 SLP189 T02220217
KHBG 150253Z AUTO 00000KT 10SM SCT045 BKN055 23/22 A3011 RMK AO2 SLP192 T02280217 53016
KHBG 150153Z AUTO 00000KT 10SM FEW060 23/22 A3009 RMK AO2 SLP187 T02280217
KHBG 150053Z AUTO 00000KT 10SM CLR 24/21 A3007 RMK AO2 SLP180 T02390211
KHBG 142353Z AUTO 16003KT 10SM CLR 26/22 A3006 RMK AO2 SLP177 T02560217 10311 20250 53002
KHBG 142253Z AUTO 12005KT 10SM CLR 29/21 A3006 RMK AO2 SLP175 T02890206
KHBG 142153Z AUTO 13008KT 10SM CLR 30/20 A3005 RMK AO2 SLP173 T03000200
KHBG 142053Z AUTO 10006KT 10SM FEW050 30/19 A3006 RMK AO2 SLP174 T03000189 56021
KHBG 141953Z AUTO 11007KT 10SM CLR 31/19 A3007 RMK AO2 SLP178 T03110189
KHBG 141853Z AUTO 10006KT 10SM BKN046 31/21 A3008 RMK AO2 SLP184 T03060206
KHBG 141753Z AUTO 10010KT 10SM CLR 31/19 A3012 RMK AO2 SLP195 T03060194 10306 20194 58017
KHBG 141653Z AUTO 12007KT 10SM CLR 29/21 A3015 RMK AO2 SLP206 T02940206
KHBG 141553Z AUTO 09007KT 10SM CLR 28/21 A3016 RMK AO2 SLP210 T02780211
KHBG 141453Z AUTO 12008KT 10SM CLR 26/22 A3017 RMK AO2 SLP212 T02560217 50011
KHBG 141353Z AUTO 12003KT 6SM BR SCT003 23/22 A3017 RMK AO2 SLP212 T02280222
KHBG 141336Z AUTO 00000KT 3SM BR BKN002 21/21 A3016 RMK AO2 T02110211
KHBG 141317Z AUTO 00000KT 1 3/4SM BR BKN002 21/21 A3016 RMK AO2 T02060206
KHBG 141314Z AUTO 00000KT 4SM BR BKN002 21/21 A3016 RMK AO2 T02110206
KHBG 141253Z AUTO 00000KT 6SM BR FEW002 21/20 A3015 RMK AO2 SLP206 T02060200
KHBG 141219Z AUTO 00000KT 4SM BR SCT002 20/20 A3014 RMK AO2 T02000200
KHBG 141153Z AUTO 00000KT 7SM CLR 20/20 A3014 RMK AO2 SLP201 T02000200 10228 20200 53012
KHBG 141053Z AUTO 00000KT 10SM CLR 21/20 A3012 RMK AO2 SLP197 T02060200
KHBG 140953Z AUTO 00000KT 6SM BR CLR 21/21 A3010 RMK AO2 SLP191 T02060206
KHBG 140853Z AUTO 00000KT 10SM CLR 21/21 A3010 RMK AO2 SLP189 T02110206 55003
KHBG 140753Z AUTO 00000KT 6SM BR CLR 22/22 A3009 RMK AO2 SLP187 T02170217